KAST/AST METAR and TAF weather

Enter ICAO airport designator
Station Type Date Time Source
KAST METAR 2022/06/29 00:55 UTC NOAA

KAST 290055Z AUTO 20009G16KT 5SM -RA BR SCT007 BKN017 OVC025 14/13 A3015 RMK AO2 RAB2357 SLP208 P0001 T01440133


Station Type Date Time Source
KAST Decoded METAR 2022/06/29 00:55 UTC NOAA

PORT OF ASTORIA AIRPORT, OR, United States (KAST) 46-09N 123-53W 3M
Jun 28, 2022 - 08:55 PM EDT / 2022.06.29 0055 UTC
Wind: from the SSW (200 degrees) at 10 MPH (9 KT) gusting to 18 MPH (16 KT):0
Visibility: 5 mile(s):0
Sky conditions: overcast
Weather: light rain; mist
Precipitation last hour: 0.01 inches
Temperature: 57.9 F (14.4 C)
Dew Point: 55.9 F (13.3 C)
Relative Humidity: 93%
Pressure (altimeter): 30.15 in. Hg (1020 hPa)
ob: KAST 290055Z AUTO 20009G16KT 5SM -RA BR SCT007 BKN017 OVC025 14/13 A3015 RMK AO2 RAB2357 SLP208 P0001 T01440133
cycle: 1

Station Type Date Time Source
KAST TAF 2022/06/29 01:33 UTC NOAA

TAF
AMD KAST 290031Z 2901/2924 21010G20KT 5SM BR VCSH FEW006 BKN012 OVC026
TEMPO 2901/2905 2SM -RADZ
FM290500 22009KT P6SM -SHRA OVC010
FM291900 22007KT P6SM VCSH OVC020
FM292100 24008KT P6SM BKN019

Example: see airport list